Time;durP1;ratioP1;P1;durP2;ratioP2;P2;SDS_P1;SDS_P2;PMS_P1;PMS_P2;Temp;Humidity;BMP_temperature;BMP_pressure;BME280_temperature;BME280_humidity;BME280_pressure;Samples;Min_cycle;Max_cycle;Signal;HPM_P1;HPM_P2
2022/03/24 00:00:02;;;;;;;50.05;29.63;;;;;;;8.41;100.00;103001.13;10138518;28;20464;-66
2022/03/24 00:04:58;;;;;;;53.10;31.77;;;;;;;8.39;100.00;102991.53;10089666;28;20923;-67
2022/03/24 00:09:55;;;;;;;50.75;29.92;;;;;;;8.31;100.00;102983.75;10117327;28;20086;-67
2022/03/24 00:14:51;;;;;;;53.22;31.75;;;;;;;8.31;100.00;102981.00;10150716;28;20161;-67
2022/03/24 00:19:48;;;;;;;48.65;29.02;;;;;;;8.29;100.00;102985.91;10152511;28;20567;-67
2022/03/24 00:24:56;;;;;;;53.67;30.48;;;;;;;8.22;100.00;102981.44;10150931;28;20133;-67
2022/03/24 00:29:53;;;;;;;50.55;29.20;;;;;;;8.27;100.00;102974.44;10152111;28;20085;-67
2022/03/24 00:34:50;;;;;;;56.25;30.52;;;;;;;8.20;100.00;102978.13;10140275;28;20046;-67
2022/03/24 00:39:48;;;;;;;52.05;30.55;;;;;;;8.13;100.00;102976.63;10151725;28;20108;-67
2022/03/24 00:44:44;;;;;;;53.38;29.98;;;;;;;8.05;100.00;102968.84;10150499;28;20042;-67
2022/03/24 00:49:43;;;;;;;54.90;30.02;;;;;;;8.01;100.00;102957.63;10148675;28;20074;-67
2022/03/24 00:54:39;;;;;;;53.13;30.60;;;;;;;7.96;100.00;102954.81;10123476;28;20691;-67
2022/03/24 00:59:36;;;;;;;50.08;29.35;;;;;;;7.90;100.00;102955.81;10130601;28;20416;-67
2022/03/24 01:04:32;;;;;;;52.85;31.13;;;;;;;7.85;100.00;102963.88;10122353;28;20078;-68
2022/03/24 01:09:30;;;;;;;52.95;28.75;;;;;;;7.80;100.00;102951.81;10126865;28;20062;-66
2022/03/24 01:14:26;;;;;;;45.20;28.67;;;;;;;7.74;100.00;102949.25;10121370;28;20053;-67
2022/03/24 01:19:24;;;;;;;57.70;29.98;;;;;;;7.65;100.00;102954.25;10149693;28;20132;-66
2022/03/24 01:24:20;;;;;;;50.03;29.38;;;;;;;7.63;100.00;102952.84;10145716;28;20042;-67
2022/03/24 01:29:19;;;;;;;52.50;28.42;;;;;;;7.57;100.00;102946.47;10149880;28;20050;-67
2022/03/24 01:34:16;;;;;;;55.35;30.02;;;;;;;7.54;100.00;102947.81;10148981;28;20444;-66
2022/03/24 01:39:13;;;;;;;51.00;30.95;;;;;;;7.51;100.00;102952.88;10149903;28;20385;-67
2022/03/24 01:44:14;;;;;;;52.33;30.05;;;;;;;7.38;100.00;102943.94;10148570;28;20472;-67
2022/03/24 01:49:11;;;;;;;52.67;29.85;;;;;;;7.35;100.00;102944.41;10148923;28;20109;-67
2022/03/24 01:54:07;;;;;;;53.75;30.13;;;;;;;7.29;100.00;102939.94;10149106;28;20070;-67
2022/03/24 01:59:07;;;;;;;56.08;30.80;;;;;;;7.21;100.00;102939.50;10138477;28;20102;-67
2022/03/24 02:04:04;;;;;;;52.75;31.75;;;;;;;7.18;100.00;102945.44;10126183;28;20046;-67
2022/03/24 02:09:02;;;;;;;49.55;29.52;;;;;;;7.14;100.00;102942.34;10161963;28;20073;-67
2022/03/24 02:13:59;;;;;;;52.25;30.27;;;;;;;7.04;100.00;102933.97;10154935;28;20116;-66
2022/03/24 02:18:59;;;;;;;51.80;30.17;;;;;;;7.00;100.00;102935.53;10151683;28;20638;-67
2022/03/24 02:23:55;;;;;;;53.20;29.10;;;;;;;6.89;100.00;102929.88;10154389;28;20046;-67
2022/03/24 02:28:54;;;;;;;51.50;30.60;;;;;;;6.81;100.00;102921.25;10156993;28;20484;-67
2022/03/24 02:34:37;;;;;;;50.80;30.48;;;;;;;6.67;100.00;102928.81;10155980;28;20114;-67
2022/03/24 02:39:10;;;;;;;54.78;32.35;;;;;;;6.62;100.00;102929.53;10155676;28;20050;-66
2022/03/24 02:44:07;;;;;;;55.78;32.67;;;;;;;6.60;100.00;102920.78;10138379;28;20050;-66
2022/03/24 02:49:03;;;;;;;58.90;31.23;;;;;;;6.55;100.00;102917.13;10154920;28;20421;-66
2022/03/24 02:54:00;;;;;;;53.05;30.85;;;;;;;6.49;100.00;102919.72;10155252;28;20085;-66
2022/03/24 02:58:57;;;;;;;50.25;29.38;;;;;;;6.39;100.00;102924.91;10147734;28;20046;-66
2022/03/24 03:03:54;;;;;;;55.92;32.03;;;;;;;6.32;100.00;102918.78;10122737;28;20093;-66
2022/03/24 03:08:54;;;;;;;55.13;32.67;;;;;;;6.25;100.00;102918.88;10143830;28;20054;-67
2022/03/24 03:13:52;;;;;;;56.15;31.65;;;;;;;6.20;100.00;102920.66;10121262;28;20047;-66
2022/03/24 03:18:48;;;;;;;53.28;30.77;;;;;;;6.11;100.00;102923.72;10154726;28;20042;-66
2022/03/24 03:23:45;;;;;;;61.67;32.03;;;;;;;6.04;100.00;102927.59;10147456;28;20686;-67
2022/03/24 03:28:42;;;;;;;54.40;31.63;;;;;;;6.05;100.00;102924.63;10152282;28;20109;-66
2022/03/24 03:33:39;;;;;;;56.58;32.25;;;;;;;5.94;100.00;102922.75;10154021;28;20129;-67
2022/03/24 03:38:35;;;;;;;53.65;31.00;;;;;;;5.94;100.00;102922.75;10146873;28;20089;-66
2022/03/24 03:43:32;;;;;;;55.60;31.52;;;;;;;5.85;100.00;102924.91;10154342;28;20066;-67
2022/03/24 03:48:30;;;;;;;56.00;31.52;;;;;;;5.85;100.00;102918.66;10150055;28;20141;-66
2022/03/24 03:53:27;;;;;;;58.22;32.40;;;;;;;5.81;100.00;102922.91;10153716;28;20780;-66
2022/03/24 03:58:23;;;;;;;58.35;31.92;;;;;;;5.75;100.00;102924.63;10149124;28;20109;-67
2022/03/24 04:03:20;;;;;;;52.38;31.40;;;;;;;5.70;100.00;102916.38;10152903;28;20053;-66
2022/03/24 04:08:17;;;;;;;59.08;32.78;;;;;;;5.64;100.00;102923.56;10151028;28;20145;-67
2022/03/24 04:13:13;;;;;;;55.13;31.90;;;;;;;5.57;100.00;102928.25;10140725;28;20490;-67
2022/03/24 04:18:09;;;;;;;54.70;30.98;;;;;;;5.50;100.00;102930.22;10151602;28;20495;-66
2022/03/24 04:23:06;;;;;;;57.88;33.03;;;;;;;5.47;100.00;102925.25;10137804;28;20130;-67
2022/03/24 04:28:04;;;;;;;56.35;31.40;;;;;;;5.43;100.00;102934.88;10151207;28;20676;-66
2022/03/24 04:33:02;;;;;;;60.20;32.80;;;;;;;5.36;100.00;102928.72;10129858;28;20047;-66
2022/03/24 04:37:58;;;;;;;52.70;30.40;;;;;;;5.32;100.00;102924.84;10146143;28;20523;-67
2022/03/24 04:42:55;;;;;;;61.33;33.60;;;;;;;5.22;100.00;102931.63;10151564;28;20128;-66
2022/03/24 04:47:51;;;;;;;60.75;32.97;;;;;;;5.21;100.00;102929.13;10150242;28;20500;-67
2022/03/24 04:52:49;;;;;;;59.28;33.83;;;;;;;5.19;100.00;102932.06;10120489;28;20677;-66
2022/03/24 04:57:45;;;;;;;55.83;32.60;;;;;;;5.11;100.00;102951.38;10127968;28;20088;-67
2022/03/24 05:02:42;;;;;;;59.67;32.00;;;;;;;5.14;100.00;102937.34;10146912;28;20137;-66
2022/03/24 05:07:40;;;;;;;67.55;35.13;;;;;;;5.06;100.00;102932.25;10147482;28;20164;-67
2022/03/24 05:12:39;;;;;;;65.45;35.75;;;;;;;5.03;100.00;102932.69;10132748;28;20098;-67
2022/03/24 05:17:36;;;;;;;61.13;34.75;;;;;;;5.02;100.00;102931.03;10143816;28;20066;-67
2022/03/24 05:22:33;;;;;;;61.80;35.90;;;;;;;4.99;100.00;102923.31;10150538;28;20137;-67
2022/03/24 05:27:30;;;;;;;62.70;35.35;;;;;;;4.98;100.00;102930.63;10149108;28;20484;-67
2022/03/24 05:32:27;;;;;;;64.22;34.25;;;;;;;4.99;100.00;102936.88;10123979;28;20047;-66
2022/03/24 05:37:23;;;;;;;66.75;36.13;;;;;;;4.97;100.00;102939.03;10143623;28;20078;-66
2022/03/24 05:42:20;;;;;;;68.45;34.40;;;;;;;4.98;100.00;102937.94;10148280;28;20531;-66
2022/03/24 05:47:17;;;;;;;63.10;34.13;;;;;;;5.01;100.00;102934.78;10147289;28;20077;-66
2022/03/24 05:52:14;;;;;;;67.38;35.97;;;;;;;5.04;100.00;102940.59;10149455;28;20078;-67
2022/03/24 05:57:11;;;;;;;64.40;36.22;;;;;;;5.05;100.00;102931.38;10147364;28;20080;-67
2022/03/24 06:02:08;;;;;;;65.93;35.72;;;;;;;5.11;100.00;102948.66;10148028;28;20053;-66
2022/03/24 06:07:04;;;;;;;63.88;34.72;;;;;;;5.18;100.00;102941.28;10140702;28;20061;-67
2022/03/24 06:12:02;;;;;;;66.15;35.55;;;;;;;5.20;100.00;102943.75;10134168;28;20134;-67
2022/03/24 06:16:58;;;;;;;67.18;35.50;;;;;;;5.26;100.00;102949.09;10140730;28;20069;-67
2022/03/24 06:21:55;;;;;;;74.82;37.13;;;;;;;5.33;100.00;102948.19;10149088;28;20105;-67
2022/03/24 06:26:52;;;;;;;63.33;35.58;;;;;;;5.41;100.00;102956.03;10147491;28;20080;-67
2022/03/24 06:31:49;;;;;;;75.60;38.05;;;;;;;5.49;100.00;102958.41;10132283;28;20130;-67
2022/03/24 06:36:46;;;;;;;61.58;34.08;;;;;;;5.64;100.00;102953.41;10137543;28;20097;-67
2022/03/24 06:41:42;;;;;;;60.10;35.00;;;;;;;5.84;100.00;102960.44;10119960;28;20074;-67
2022/03/24 06:46:39;;;;;;;59.17;34.80;;;;;;;5.88;100.00;102956.22;10142927;28;20093;-67
2022/03/24 06:51:36;;;;;;;65.25;36.70;;;;;;;6.00;100.00;102954.38;10155980;28;20077;-67
2022/03/24 06:56:32;;;;;;;67.53;34.88;;;;;;;6.09;100.00;102952.97;10153899;28;20072;-67
2022/03/24 07:01:29;;;;;;;65.63;33.92;;;;;;;6.18;100.00;102960.81;10155546;28;20281;-67
2022/03/24 07:06:26;;;;;;;65.45;35.60;;;;;;;6.25;100.00;102966.97;10136596;28;20525;-67
2022/03/24 07:11:22;;;;;;;62.47;34.45;;;;;;;6.28;100.00;102961.88;10155829;28;20042;-67
2022/03/24 07:16:19;;;;;;;64.95;33.42;;;;;;;6.44;100.00;102959.53;10153448;28;20129;-67
2022/03/24 07:21:15;;;;;;;63.85;36.50;;;;;;;6.62;100.00;102961.34;10154625;28;20078;-66
2022/03/24 07:26:12;;;;;;;56.25;32.33;;;;;;;6.76;100.00;102961.91;10139405;28;20050;-67
2022/03/24 07:31:16;;;;;;;58.75;32.58;;;;;;;6.83;100.00;102973.50;10152544;28;20120;-67
2022/03/24 07:36:13;;;;;;;62.15;34.20;;;;;;;6.97;100.00;102972.19;10153609;28;20052;-67
2022/03/24 07:41:09;;;;;;;59.47;32.00;;;;;;;7.09;100.00;102978.44;10128886;28;20548;-67
2022/03/24 07:46:06;;;;;;;60.17;32.47;;;;;;;7.28;100.00;102981.81;10138284;28;20085;-67
2022/03/24 07:51:03;;;;;;;57.30;33.03;;;;;;;7.40;100.00;102983.69;10125421;28;20109;-67
2022/03/24 07:56:00;;;;;;;55.90;31.52;;;;;;;7.57;100.00;102973.72;10135683;28;20100;-67
2022/03/24 08:00:57;;;;;;;56.28;31.33;;;;;;;7.77;100.00;102976.84;10136769;28;20782;-67
2022/03/24 08:05:55;;;;;;;51.80;30.38;;;;;;;7.97;100.00;102972.81;10145510;28;20046;-67
2022/03/24 08:10:52;;;;;;;56.15;29.98;;;;;;;8.09;100.00;102973.56;10153648;28;20073;-67
2022/03/24 08:15:50;;;;;;;57.55;29.92;;;;;;;8.27;100.00;102982.59;10151617;28;20600;-67
2022/03/24 08:20:51;;;;;;;53.00;31.63;;;;;;;8.42;100.00;102981.00;10153076;28;20038;-67
2022/03/24 08:25:48;;;;;;;50.67;29.65;;;;;;;8.68;98.97;102983.28;10150407;28;20514;-67
2022/03/24 08:30:45;;;;;;;49.53;26.85;;;;;;;8.84;96.31;102983.28;10152645;28;20046;-67
2022/03/24 08:35:42;;;;;;;49.72;29.80;;;;;;;9.05;94.93;102983.53;10117855;28;20077;-67
2022/03/24 08:40:39;;;;;;;52.88;28.83;;;;;;;9.21;91.09;102981.84;10151061;28;20046;-67
2022/03/24 08:45:37;;;;;;;49.78;28.77;;;;;;;9.41;87.18;102987.56;10151279;28;20112;-67
2022/03/24 08:50:34;;;;;;;47.28;28.17;;;;;;;9.61;83.67;102992.44;10132546;28;20059;-68
2022/03/24 08:55:31;;;;;;;44.53;26.92;;;;;;;9.82;78.59;102988.03;10131901;28;20526;-67
2022/03/24 09:00:28;;;;;;;47.55;28.65;;;;;;;9.99;76.89;102987.09;10132932;28;20485;-67
2022/03/24 09:05:24;;;;;;;47.55;27.80;;;;;;;10.27;80.34;102977.78;10151004;28;20054;-67
2022/03/24 09:10:22;;;;;;;47.00;27.00;;;;;;;10.52;75.03;102988.16;10120975;28;21777;-67
2022/03/24 09:15:19;;;;;;;45.28;26.80;;;;;;;10.69;67.68;102986.06;10129221;28;20149;-66
2022/03/24 09:20:18;;;;;;;45.90;27.35;;;;;;;10.87;65.65;102982.09;10130985;28;20058;-68
2022/03/24 09:25:16;;;;;;;47.20;27.80;;;;;;;11.08;69.17;102988.50;10149805;28;20499;-65
2022/03/24 09:30:18;;;;;;;49.10;28.17;;;;;;;11.28;65.68;102986.94;10149913;28;20096;-66
2022/03/24 09:35:15;;;;;;;54.75;29.30;;;;;;;11.47;67.00;102990.06;10145027;28;20104;-67
2022/03/24 09:40:12;;;;;;;45.55;26.58;;;;;;;11.59;64.21;102980.50;10150540;28;20085;-67
2022/03/24 09:45:11;;;;;;;47.50;26.42;;;;;;;11.78;64.65;102985.47;10148515;28;20085;-67
2022/03/24 09:50:09;;;;;;;43.13;25.83;;;;;;;11.92;62.62;102986.63;10150174;28;20054;-67
2022/03/24 09:55:08;;;;;;;45.83;26.40;;;;;;;12.17;61.46;102983.09;10149105;28;20047;-67
2022/03/24 10:00:05;;;;;;;57.47;30.13;;;;;;;12.28;57.46;102978.44;10135899;28;20082;-67
2022/03/24 10:05:02;;;;;;;43.50;24.02;;;;;;;12.48;57.74;102976.78;10125409;28;20085;-67
2022/03/24 10:10:01;;;;;;;43.17;26.08;;;;;;;12.62;56.73;102973.22;10149489;28;20175;-67
2022/03/24 10:15:10;;;;;;;46.80;28.73;;;;;;;12.92;57.15;102974.22;10109539;28;20050;-68
2022/03/24 10:20:12;;;;;;;45.47;26.75;;;;;;;13.12;54.20;102981.59;10133967;28;20050;-65
2022/03/24 10:25:23;;;;;;;48.72;26.90;;;;;;;13.54;54.81;102976.78;10117474;28;20105;-67
2022/03/24 10:30:19;;;;;;;41.15;26.05;;;;;;;13.89;53.03;102970.25;10157062;28;20050;-67
2022/03/24 10:35:16;;;;;;;47.75;26.13;;;;;;;14.30;52.11;102968.00;10151132;28;20093;-67
2022/03/24 10:40:13;;;;;;;46.05;26.95;;;;;;;14.46;49.47;102971.44;10156966;28;20085;-67
2022/03/24 10:45:18;;;;;;;45.25;26.23;;;;;;;14.92;48.15;102964.66;10154303;28;20113;-68
2022/03/24 10:50:24;;;;;;;43.60;26.23;;;;;;;15.13;47.64;102956.97;10156377;28;20104;-68
2022/03/24 10:56:00;;;;;;;43.88;26.38;;;;;;;15.30;47.11;102956.50;10155131;28;21478;-68
2022/03/24 11:01:00;;;;;;;50.17;28.08;;;;;;;15.42;46.26;102958.81;10129622;28;20153;-68
2022/03/24 11:06:05;;;;;;;47.97;28.38;;;;;;;15.83;44.92;102955.50;10154327;28;20046;-68
2022/03/24 11:11:07;;;;;;;42.38;25.67;;;;;;;16.37;44.27;102952.13;10155216;28;20096;-68
2022/03/24 11:16:05;;;;;;;46.70;27.60;;;;;;;16.68;44.29;102950.75;10154037;28;20113;-67
2022/03/24 11:21:08;;;;;;;40.90;27.40;;;;;;;16.94;44.40;102949.16;10140712;28;20040;-67
2022/03/24 11:26:05;;;;;;;;;;;;;;;17.08;41.66;102940.88;10154228;28;20070;-67
2022/03/24 11:31:19;;;;;;;40.45;25.00;;;;;;;17.37;41.92;102940.50;10153504;28;19996;-67
2022/03/24 11:36:18;;;;;;;40.60;25.50;;;;;;;17.64;39.89;102938.81;10153435;28;20610;-67
2022/03/24 11:41:21;;;;;;;40.83;26.60;;;;;;;18.36;40.83;102942.63;10154704;28;20779;-67
2022/03/24 11:46:34;;;;;;;42.88;27.08;;;;;;;18.22;37.83;102926.91;10147908;28;20460;-67
2022/03/24 11:51:31;;;;;;;41.10;25.35;;;;;;;18.87;38.90;102924.63;10154231;28;20054;-67
2022/03/24 11:56:28;;;;;;;45.28;27.08;;;;;;;19.19;37.85;102911.47;10151867;28;20046;-67
2022/03/24 12:01:29;;;;;;;41.88;26.88;;;;;;;19.38;35.37;102912.00;10153256;28;20092;-67
2022/03/24 12:06:42;;;;;;;40.72;27.00;;;;;;;19.87;33.01;102907.13;10135352;28;20046;-67
2022/03/24 12:11:48;;;;;;;43.65;27.67;;;;;;;20.79;33.27;102897.53;10153337;28;20105;-67
2022/03/24 12:16:47;;;;;;;48.63;27.15;;;;;;;21.37;33.03;102895.84;10150494;28;20125;-67
2022/03/24 12:21:43;;;;;;;41.45;28.55;;;;;;;21.69;31.04;102889.88;10151801;28;20046;-67
2022/03/24 12:26:50;;;;;;;43.38;28.45;;;;;;;21.74;31.31;102881.31;10151190;28;20725;-67
2022/03/24 12:32:09;;;;;;;43.45;27.92;;;;;;;21.96;30.99;102871.78;10152161;28;20046;-67
2022/03/24 12:37:07;;;;;;;39.33;26.77;;;;;;;22.24;30.54;102875.56;10150676;28;20105;-66
2022/03/24 12:42:13;;;;;;;38.60;27.63;;;;;;;22.81;30.06;102868.28;10152473;28;20108;-67
2022/03/24 12:47:30;;;;;;;41.83;27.80;;;;;;;22.78;28.94;102857.81;10150443;28;20501;-67
2022/03/24 12:52:51;;;;;;;39.75;26.90;;;;;;;23.33;29.16;102854.72;10152414;28;20046;-67
2022/03/24 12:58:12;;;;;;;39.10;27.40;;;;;;;23.82;29.65;102843.34;10143481;28;20074;-67
2022/03/24 13:03:10;;;;;;;35.67;26.27;;;;;;;24.20;28.08;102848.31;10139909;28;20133;-67
2022/03/24 13:08:14;;;;;;;39.97;27.30;;;;;;;23.70;26.50;102841.41;10150021;28;20043;-67
2022/03/24 13:13:11;;;;;;;38.70;27.05;;;;;;;24.14;27.41;102833.81;10150537;28;20077;-67
2022/03/24 13:18:09;;;;;;;33.33;22.08;;;;;;;24.66;29.71;102826.31;10149593;28;20133;-67
2022/03/24 13:23:11;;;;;;;33.40;23.17;;;;;;;24.91;27.93;102832.47;10122626;28;20621;-67
2022/03/24 13:28:08;;;;;;;33.47;23.57;;;;;;;24.74;26.65;102816.06;10145929;28;20078;-67
2022/03/24 13:33:07;;;;;;;34.50;23.25;;;;;;;24.81;26.76;102815.44;10111549;28;20493;-67
2022/03/24 13:38:14;;;;;;;34.08;22.70;;;;;;;25.21;26.68;102817.94;10148371;28;20112;-67
2022/03/24 13:43:11;;;;;;;34.63;24.75;;;;;;;25.30;25.76;102821.31;10150468;28;20590;-67
2022/03/24 13:48:07;;;;;;;34.47;24.15;;;;;;;25.21;25.20;102823.53;10145150;28;20109;-67
2022/03/24 13:53:19;;;;;;;30.25;20.48;;;;;;;25.03;26.14;102808.34;10149357;28;20050;-67
2022/03/24 13:58:18;;;;;;;30.05;21.27;;;;;;;25.14;25.89;102812.97;10141050;28;20038;-67
2022/03/24 14:03:20;;;;;;;30.42;21.95;;;;;;;24.89;25.48;102798.44;10132057;28;20109;-67
2022/03/24 14:08:18;;;;;;;39.92;23.33;;;;;;;24.55;24.76;102791.69;10148414;28;20050;-67
2022/03/24 14:13:20;;;;;;;30.05;21.58;;;;;;;24.19;26.77;102787.22;10149571;28;20053;-67
2022/03/24 14:18:22;;;;;;;32.55;22.50;;;;;;;23.92;26.72;102781.34;10148209;28;20050;-67
2022/03/24 14:23:35;;;;;;;32.53;21.60;;;;;;;24.26;27.18;102776.22;10149035;28;20077;-67
2022/03/24 14:28:33;;;;;;;29.50;20.63;;;;;;;24.61;26.76;102776.25;10139349;28;20141;-67
2022/03/24 14:33:45;;;;;;;37.47;23.42;;;;;;;24.71;26.27;102766.47;10113835;28;20073;-67
2022/03/24 14:39:08;;;;;;;30.13;20.73;;;;;;;24.77;29.11;102765.03;10141685;28;20047;-67
2022/03/24 14:44:04;;;;;;;29.63;21.15;;;;;;;24.82;28.66;102759.13;10148402;28;20112;-67
2022/03/24 14:49:04;;;;;;;33.50;21.65;;;;;;;24.77;28.92;102759.41;10127934;28;20133;-67
2022/03/24 14:54:00;;;;;;;32.50;21.45;;;;;;;24.24;27.89;102750.59;10116566;28;20081;-67
2022/03/24 14:58:57;;;;;;;33.58;22.92;;;;;;;24.21;26.74;102743.75;10147568;28;20134;-67
2022/03/24 15:03:55;;;;;;;30.48;20.42;;;;;;;24.13;27.26;102741.94;10130698;28;20049;-67
2022/03/24 15:08:51;;;;;;;32.00;20.10;;;;;;;23.84;27.84;102743.25;10131830;28;20047;-68
2022/03/24 15:19:04;;;;;;;31.58;20.92;;;;;;;23.04;28.82;102736.66;10154512;28;20061;-67
2022/03/24 15:24:01;;;;;;;36.25;21.98;;;;;;;22.54;28.96;102727.63;10153870;28;20504;-67
2022/03/24 15:29:01;;;;;;;31.77;20.60;;;;;;;22.47;30.89;102736.56;10154561;28;20050;-66
2022/03/24 15:33:58;;;;;;;32.58;22.00;;;;;;;22.51;30.80;102730.28;10152405;28;20592;-66
2022/03/24 15:38:55;;;;;;;29.05;20.02;;;;;;;22.57;30.59;102729.69;10154248;28;20120;-67
2022/03/24 15:43:53;;;;;;;34.08;21.58;;;;;;;22.06;30.06;102738.44;10153902;28;20603;-66
2022/03/24 15:48:53;;;;;;;32.53;20.65;;;;;;;21.71;31.35;102737.25;10154304;28;20054;-66
2022/03/24 15:53:49;;;;;;;33.33;20.20;;;;;;;21.34;32.40;102739.91;10153052;28;20082;-66
2022/03/24 15:58:50;;;;;;;34.63;22.85;;;;;;;21.00;32.79;102730.72;10153458;28;20047;-68
2022/03/24 16:03:49;;;;;;;33.42;22.77;;;;;;;20.70;34.07;102733.59;10152122;28;20089;-66
2022/03/24 16:08:45;;;;;;;33.33;21.52;;;;;;;21.08;33.76;102727.06;10152319;28;20050;-68
2022/03/24 16:13:48;;;;;;;33.15;21.38;;;;;;;20.84;32.69;102722.22;10153067;28;20471;-66
2022/03/24 16:18:45;;;;;;;33.58;22.15;;;;;;;21.17;34.28;102736.13;10151328;28;20101;-67
2022/03/24 16:23:42;;;;;;;34.78;22.55;;;;;;;20.47;32.96;102732.25;10152028;28;20818;-65
2022/03/24 16:28:38;;;;;;;35.25;21.02;;;;;;;20.65;33.89;102736.56;10151523;28;20047;-66
2022/03/24 16:33:35;;;;;;;43.47;23.88;;;;;;;20.16;34.25;102736.19;10152017;28;20138;-67
2022/03/24 16:38:32;;;;;;;34.78;21.23;;;;;;;19.94;36.20;102738.09;10151238;28;20081;-67
2022/03/24 16:43:29;;;;;;;35.35;22.20;;;;;;;19.61;36.95;102742.56;10128324;28;20042;-67
2022/03/24 16:48:28;;;;;;;33.53;19.90;;;;;;;19.35;38.86;102746.22;10133784;28;20044;-67
2022/03/24 16:53:25;;;;;;;31.05;20.75;;;;;;;19.10;41.24;102745.94;10113495;28;20128;-67
2022/03/24 16:58:23;;;;;;;30.50;18.52;;;;;;;18.79;41.10;102745.28;10143238;28;20138;-67
2022/03/24 17:03:22;;;;;;;37.15;20.55;;;;;;;18.45;40.65;102742.09;10114007;28;20070;-66
2022/03/24 17:08:19;;;;;;;34.15;20.63;;;;;;;18.22;45.53;102746.94;10149230;28;20047;-66
2022/03/24 17:13:17;;;;;;;34.65;22.00;;;;;;;17.94;47.45;102748.28;10150650;28;20165;-67
2022/03/24 17:18:15;;;;;;;36.42;22.60;;;;;;;17.65;47.42;102746.81;10149255;28;20097;-66
2022/03/24 17:23:12;;;;;;;33.25;21.75;;;;;;;17.44;46.71;102747.31;10149651;28;20074;-67
2022/03/24 17:28:09;;;;;;;35.30;21.75;;;;;;;17.10;48.99;102755.38;10125354;28;20551;-67
2022/03/24 17:33:05;;;;;;;35.58;21.85;;;;;;;16.86;49.49;102759.25;10150140;28;20097;-67
2022/03/24 17:38:03;;;;;;;38.63;22.35;;;;;;;16.62;49.94;102754.75;10128287;28;20061;-66
2022/03/24 17:42:59;;;;;;;30.92;21.48;;;;;;;16.39;49.18;102767.66;10137124;28;20074;-66
2022/03/24 17:47:57;;;;;;;34.88;21.30;;;;;;;16.14;49.90;102760.72;10148230;28;20050;-66
2022/03/24 17:52:54;;;;;;;36.28;22.25;;;;;;;15.91;50.55;102772.75;10149850;28;20715;-66
2022/03/24 17:57:52;;;;;;;35.42;21.98;;;;;;;15.70;52.16;102767.59;10148640;28;20093;-65
2022/03/24 18:02:49;;;;;;;38.88;24.35;;;;;;;15.50;54.94;102767.91;10149991;28;20085;-66
2022/03/24 18:07:46;;;;;;;36.20;23.08;;;;;;;15.30;54.74;102775.41;10147650;28;20459;-66
2022/03/24 18:12:42;;;;;;;42.75;24.50;;;;;;;15.09;57.95;102774.09;10149780;28;20046;-67
2022/03/24 18:17:46;;;;;;;40.03;22.67;;;;;;;14.93;62.54;102777.06;10147124;28;20046;-67
2022/03/24 18:22:43;;;;;;;40.22;24.92;;;;;;;14.73;61.66;102777.34;10139803;28;20058;-66
2022/03/24 18:27:41;;;;;;;36.20;23.38;;;;;;;14.56;62.38;102783.34;10146325;28;20089;-66
2022/03/24 18:32:37;;;;;;;40.17;23.10;;;;;;;14.39;61.83;102778.31;10149772;28;20042;-67
2022/03/24 18:37:34;;;;;;;38.08;23.05;;;;;;;14.28;64.50;102782.28;10147464;28;20133;-66
2022/03/24 18:42:32;;;;;;;43.00;24.25;;;;;;;14.15;63.79;102785.72;10148070;28;20103;-66
2022/03/24 18:47:29;;;;;;;43.83;25.50;;;;;;;14.02;65.41;102787.25;10151596;28;20480;-66
2022/03/24 18:52:26;;;;;;;41.25;24.90;;;;;;;13.84;66.16;102791.56;10148572;28;20497;-66
2022/03/24 18:57:22;;;;;;;37.25;25.05;;;;;;;13.74;69.82;102795.22;10149933;28;20211;-66
2022/03/24 19:02:19;;;;;;;41.20;24.35;;;;;;;13.62;71.58;102798.34;10147285;28;20137;-65
2022/03/24 19:07:16;;;;;;;42.97;24.80;;;;;;;13.55;73.23;102797.81;10148888;28;20069;-65
2022/03/24 19:12:13;;;;;;;44.88;27.42;;;;;;;13.41;75.02;102797.69;10155856;28;20117;-66
2022/03/24 19:17:11;;;;;;;42.13;25.23;;;;;;;13.32;76.27;102795.81;10153685;28;20077;-66
2022/03/24 19:22:08;;;;;;;54.97;28.15;;;;;;;13.16;77.14;102793.16;10154661;28;20046;-66
2022/03/24 19:27:05;;;;;;;45.47;27.17;;;;;;;13.01;79.92;102796.00;10135152;28;20042;-66
2022/03/24 19:32:04;;;;;;;50.50;27.90;;;;;;;12.88;80.56;102799.34;10155142;28;20085;-66
2022/03/24 19:37:01;;;;;;;51.50;29.02;;;;;;;12.79;84.00;102797.22;10152896;28;20046;-66
2022/03/24 19:41:57;;;;;;;46.15;28.23;;;;;;;12.71;83.13;102799.72;10155307;28;20105;-66
2022/03/24 19:46:54;;;;;;;49.40;30.15;;;;;;;12.58;83.59;102801.16;10152748;28;20069;-65
2022/03/24 19:51:50;;;;;;;51.58;31.50;;;;;;;12.48;87.48;102812.16;10135477;28;20476;-66
2022/03/24 19:56:47;;;;;;;56.05;31.08;;;;;;;12.33;86.87;102808.38;10143139;28;20101;-66
2022/03/24 20:01:44;;;;;;;58.58;32.70;;;;;;;12.20;89.02;102806.19;10153345;28;20047;-66
2022/03/24 20:06:41;;;;;;;57.17;32.35;;;;;;;12.12;90.35;102809.53;10151735;28;20046;-67
2022/03/24 20:11:38;;;;;;;54.55;33.10;;;;;;;12.03;90.33;102817.47;10116563;28;20117;-67
2022/03/24 20:16:38;;;;;;;50.70;33.58;;;;;;;11.90;91.73;102818.03;10142830;28;20128;-67
2022/03/24 20:21:35;;;;;;;51.72;32.10;;;;;;;11.83;91.14;102823.75;10153372;28;20042;-65
2022/03/24 20:26:32;;;;;;;51.00;33.70;;;;;;;11.75;93.08;102818.84;10134198;28;20101;-67
2022/03/24 20:31:31;;;;;;;60.13;34.67;;;;;;;11.65;94.10;102818.81;10152816;28;20074;-66
2022/03/24 20:36:28;;;;;;;63.17;34.95;;;;;;;11.55;94.98;102817.72;10145168;28;20073;-66
2022/03/24 20:41:25;;;;;;;55.97;33.72;;;;;;;11.47;96.10;102821.03;10151634;28;20088;-65
2022/03/24 20:46:21;;;;;;;54.50;33.17;;;;;;;11.38;96.92;102820.72;10146153;28;20116;-67
2022/03/24 20:51:18;;;;;;;54.53;34.28;;;;;;;11.24;97.75;102821.53;10108849;28;20808;-67
2022/03/24 20:56:16;;;;;;;57.60;34.42;;;;;;;11.13;98.94;102821.50;10136954;28;20136;-67
2022/03/24 21:01:12;;;;;;;56.22;33.35;;;;;;;11.01;99.96;102826.41;10110367;28;20055;-67
2022/03/24 21:06:10;;;;;;;56.83;34.35;;;;;;;10.85;100.00;102830.19;10135115;28;20544;-67
2022/03/24 21:11:09;;;;;;;55.85;34.25;;;;;;;10.73;100.00;102839.44;10113164;28;20050;-67
2022/03/24 21:16:11;;;;;;;57.55;33.80;;;;;;;10.70;100.00;102839.97;10136229;28;20508;-67
2022/03/24 21:21:08;;;;;;;58.00;34.40;;;;;;;10.62;100.00;102837.75;10150456;28;20643;-67
2022/03/24 21:26:04;;;;;;;59.75;34.63;;;;;;;10.55;100.00;102834.44;10149522;28;20589;-67
2022/03/24 21:31:01;;;;;;;55.38;34.15;;;;;;;10.46;100.00;102836.03;10150836;28;20100;-66
2022/03/24 21:35:59;;;;;;;53.25;33.55;;;;;;;10.43;100.00;102831.09;10149255;28;20085;-66
2022/03/24 21:40:56;;;;;;;55.22;32.70;;;;;;;10.25;100.00;102832.31;10150149;28;20100;-67
2022/03/24 21:45:52;;;;;;;58.20;34.40;;;;;;;10.18;100.00;102838.00;10128319;28;20626;-66
2022/03/24 21:50:49;;;;;;;55.17;31.80;;;;;;;10.10;100.00;102841.25;10150345;28;20042;-65
2022/03/24 21:55:48;;;;;;;57.22;33.28;;;;;;;10.03;100.00;102848.84;10132907;28;20089;-66
2022/03/24 22:01:20;;;;;;;57.72;34.88;;;;;;;9.95;100.00;102844.69;10149113;28;20042;-66
2022/03/24 22:06:18;;;;;;;55.78;33.38;;;;;;;9.87;100.00;102846.00;10148532;28;20417;-67
2022/03/24 22:11:15;;;;;;;54.25;32.47;;;;;;;9.80;100.00;102847.31;10149596;28;20062;-67
2022/03/24 22:16:11;;;;;;;53.88;33.33;;;;;;;9.73;100.00;102852.16;10148356;28;20055;-67
2022/03/24 22:21:08;;;;;;;55.17;33.25;;;;;;;9.66;100.00;102846.91;10136004;28;20563;-65
2022/03/24 22:26:05;;;;;;;56.08;33.45;;;;;;;9.61;100.00;102849.59;10155943;28;20139;-66